sensor_id;sensor_type;location;lat;lon;timestamp;P1;durP1;ratioP1;P2;durP2;ratioP2
15528;SDS011;7866;52.280;9.500;2023-07-30T00:01:26;1.75;;;1.25;;
15528;SDS011;7866;52.280;9.500;2023-07-30T00:06:29;1.33;;;1.23;;
15528;SDS011;7866;52.280;9.500;2023-07-30T00:11:31;4.55;;;1.55;;
15528;SDS011;7866;52.280;9.500;2023-07-30T00:16:32;1.23;;;1.20;;
15528;SDS011;7866;52.280;9.500;2023-07-30T00:21:35;1.58;;;1.20;;
15528;SDS011;7866;52.280;9.500;2023-07-30T00:26:37;3.10;;;1.30;;
15528;SDS011;7866;52.280;9.500;2023-07-30T00:31:39;1.27;;;1.27;;
15528;SDS011;7866;52.280;9.500;2023-07-30T00:36:42;1.42;;;1.30;;
15528;SDS011;7866;52.280;9.500;2023-07-30T00:41:43;1.73;;;1.20;;
15528;SDS011;7866;52.280;9.500;2023-07-30T00:46:46;1.77;;;1.38;;
15528;SDS011;7866;52.280;9.500;2023-07-30T00:51:49;1.83;;;1.70;;
15528;SDS011;7866;52.280;9.500;2023-07-30T00:56:51;3.20;;;1.90;;
15528;SDS011;7866;52.280;9.500;2023-07-30T01:01:54;1.58;;;1.48;;
15528;SDS011;7866;52.280;9.500;2023-07-30T01:07:00;2.30;;;1.90;;
15528;SDS011;7866;52.280;9.500;2023-07-30T01:12:01;1.73;;;1.63;;
15528;SDS011;7866;52.280;9.500;2023-07-30T01:17:05;2.60;;;1.95;;
15528;SDS011;7866;52.280;9.500;2023-07-30T01:22:09;1.83;;;1.73;;
15528;SDS011;7866;52.280;9.500;2023-07-30T01:27:11;2.30;;;2.10;;
15528;SDS011;7866;52.280;9.500;2023-07-30T01:32:21;2.55;;;2.00;;
15528;SDS011;7866;52.280;9.500;2023-07-30T01:37:28;3.97;;;2.00;;
15528;SDS011;7866;52.280;9.500;2023-07-30T01:42:31;3.05;;;2.10;;
15528;SDS011;7866;52.280;9.500;2023-07-30T01:47:32;2.20;;;1.92;;
15528;SDS011;7866;52.280;9.500;2023-07-30T01:52:35;2.13;;;2.00;;
15528;SDS011;7866;52.280;9.500;2023-07-30T01:57:38;2.00;;;1.73;;
15528;SDS011;7866;52.280;9.500;2023-07-30T02:02:40;4.65;;;2.30;;
15528;SDS011;7866;52.280;9.500;2023-07-30T02:07:43;5.03;;;1.92;;
15528;SDS011;7866;52.280;9.500;2023-07-30T02:13:03;3.47;;;1.88;;
15528;SDS011;7866;52.280;9.500;2023-07-30T02:18:08;2.25;;;2.05;;
15528;SDS011;7866;52.280;9.500;2023-07-30T02:23:13;2.50;;;1.90;;
15528;SDS011;7866;52.280;9.500;2023-07-30T02:28:15;2.58;;;1.90;;
15528;SDS011;7866;52.280;9.500;2023-07-30T02:33:17;3.42;;;1.77;;
15528;SDS011;7866;52.280;9.500;2023-07-30T02:38:20;3.30;;;1.90;;
15528;SDS011;7866;52.280;9.500;2023-07-30T02:43:21;3.33;;;1.83;;
15528;SDS011;7866;52.280;9.500;2023-07-30T02:48:23;3.42;;;1.70;;
15528;SDS011;7866;52.280;9.500;2023-07-30T02:53:26;5.65;;;1.83;;
15528;SDS011;7866;52.280;9.500;2023-07-30T02:58:27;3.22;;;2.03;;
15528;SDS011;7866;52.280;9.500;2023-07-30T03:03:29;4.13;;;1.83;;
15528;SDS011;7866;52.280;9.500;2023-07-30T03:08:32;2.25;;;2.03;;
15528;SDS011;7866;52.280;9.500;2023-07-30T03:13:36;2.83;;;2.05;;
15528;SDS011;7866;52.280;9.500;2023-07-30T03:18:37;2.97;;;1.90;;
15528;SDS011;7866;52.280;9.500;2023-07-30T03:23:40;3.72;;;2.03;;
15528;SDS011;7866;52.280;9.500;2023-07-30T03:28:44;4.00;;;1.80;;
15528;SDS011;7866;52.280;9.500;2023-07-30T03:33:45;3.70;;;1.98;;
15528;SDS011;7866;52.280;9.500;2023-07-30T03:38:48;4.43;;;2.00;;
15528;SDS011;7866;52.280;9.500;2023-07-30T03:43:50;4.50;;;2.03;;
15528;SDS011;7866;52.280;9.500;2023-07-30T03:48:52;7.15;;;2.38;;
15528;SDS011;7866;52.280;9.500;2023-07-30T03:58:57;4.82;;;2.05;;
15528;SDS011;7866;52.280;9.500;2023-07-30T04:03:59;4.03;;;1.98;;
15528;SDS011;7866;52.280;9.500;2023-07-30T04:09:00;6.03;;;1.98;;
15528;SDS011;7866;52.280;9.500;2023-07-30T04:14:03;4.10;;;2.13;;
15528;SDS011;7866;52.280;9.500;2023-07-30T04:19:08;4.03;;;2.30;;
15528;SDS011;7866;52.280;9.500;2023-07-30T04:24:09;4.97;;;2.85;;
15528;SDS011;7866;52.280;9.500;2023-07-30T04:29:12;4.93;;;2.85;;
15528;SDS011;7866;52.280;9.500;2023-07-30T04:34:16;5.28;;;3.28;;
15528;SDS011;7866;52.280;9.500;2023-07-30T04:39:18;3.95;;;2.90;;
15528;SDS011;7866;52.280;9.500;2023-07-30T04:44:21;3.67;;;3.17;;
15528;SDS011;7866;52.280;9.500;2023-07-30T04:49:22;5.78;;;3.47;;
15528;SDS011;7866;52.280;9.500;2023-07-30T04:54:24;5.47;;;3.15;;
15528;SDS011;7866;52.280;9.500;2023-07-30T04:59:27;5.13;;;3.63;;
15528;SDS011;7866;52.280;9.500;2023-07-30T05:04:29;6.43;;;3.72;;
15528;SDS011;7866;52.280;9.500;2023-07-30T05:09:31;6.28;;;3.85;;
15528;SDS011;7866;52.280;9.500;2023-07-30T05:14:34;5.22;;;3.58;;
15528;SDS011;7866;52.280;9.500;2023-07-30T05:19:35;4.30;;;3.20;;
15528;SDS011;7866;52.280;9.500;2023-07-30T05:24:37;6.07;;;3.33;;
15528;SDS011;7866;52.280;9.500;2023-07-30T05:29:40;4.00;;;3.40;;
15528;SDS011;7866;52.280;9.500;2023-07-30T05:34:41;6.50;;;3.67;;
15528;SDS011;7866;52.280;9.500;2023-07-30T05:39:43;3.90;;;3.47;;
15528;SDS011;7866;52.280;9.500;2023-07-30T05:44:46;4.30;;;3.63;;
15528;SDS011;7866;52.280;9.500;2023-07-30T05:49:48;5.65;;;3.80;;
15528;SDS011;7866;52.280;9.500;2023-07-30T05:54:50;6.40;;;3.95;;
15528;SDS011;7866;52.280;9.500;2023-07-30T05:59:53;4.68;;;3.17;;
15528;SDS011;7866;52.280;9.500;2023-07-30T06:04:54;8.02;;;3.42;;
15528;SDS011;7866;52.280;9.500;2023-07-30T06:09:56;5.47;;;2.80;;
15528;SDS011;7866;52.280;9.500;2023-07-30T06:14:59;3.67;;;2.88;;
15528;SDS011;7866;52.280;9.500;2023-07-30T06:20:01;5.30;;;2.63;;
15528;SDS011;7866;52.280;9.500;2023-07-30T06:25:03;3.55;;;2.40;;
15528;SDS011;7866;52.280;9.500;2023-07-30T06:30:07;3.45;;;2.20;;
15528;SDS011;7866;52.280;9.500;2023-07-30T06:35:09;3.65;;;2.15;;
15528;SDS011;7866;52.280;9.500;2023-07-30T06:40:10;6.60;;;2.70;;
15528;SDS011;7866;52.280;9.500;2023-07-30T06:45:13;4.38;;;2.17;;
15528;SDS011;7866;52.280;9.500;2023-07-30T06:50:15;4.00;;;2.10;;
15528;SDS011;7866;52.280;9.500;2023-07-30T06:55:17;3.28;;;2.00;;
15528;SDS011;7866;52.280;9.500;2023-07-30T07:00:20;5.38;;;1.95;;
15528;SDS011;7866;52.280;9.500;2023-07-30T07:05:22;4.32;;;1.63;;
15528;SDS011;7866;52.280;9.500;2023-07-30T07:10:24;5.38;;;1.95;;
15528;SDS011;7866;52.280;9.500;2023-07-30T07:15:27;3.13;;;1.90;;
15528;SDS011;7866;52.280;9.500;2023-07-30T07:20:29;3.13;;;1.88;;
15528;SDS011;7866;52.280;9.500;2023-07-30T07:25:31;4.20;;;2.13;;
15528;SDS011;7866;52.280;9.500;2023-07-30T07:30:35;4.03;;;1.83;;
15528;SDS011;7866;52.280;9.500;2023-07-30T07:35:37;4.72;;;2.40;;
15528;SDS011;7866;52.280;9.500;2023-07-30T07:40:39;4.18;;;2.40;;
15528;SDS011;7866;52.280;9.500;2023-07-30T07:45:42;4.00;;;2.00;;
15528;SDS011;7866;52.280;9.500;2023-07-30T07:50:44;4.72;;;2.33;;
15528;SDS011;7866;52.280;9.500;2023-07-30T07:55:46;6.32;;;2.63;;
15528;SDS011;7866;52.280;9.500;2023-07-30T08:00:49;4.50;;;2.55;;
15528;SDS011;7866;52.280;9.500;2023-07-30T08:05:51;3.95;;;2.35;;
15528;SDS011;7866;52.280;9.500;2023-07-30T08:10:52;6.00;;;2.58;;
15528;SDS011;7866;52.280;9.500;2023-07-30T08:15:56;4.38;;;2.55;;
15528;SDS011;7866;52.280;9.500;2023-07-30T08:20:59;5.70;;;3.05;;
15528;SDS011;7866;52.280;9.500;2023-07-30T08:26:01;5.85;;;2.65;;
15528;SDS011;7866;52.280;9.500;2023-07-30T08:31:04;3.85;;;2.45;;
15528;SDS011;7866;52.280;9.500;2023-07-30T08:36:06;4.65;;;2.85;;
15528;SDS011;7866;52.280;9.500;2023-07-30T08:41:08;4.25;;;2.97;;
15528;SDS011;7866;52.280;9.500;2023-07-30T08:46:11;6.55;;;3.17;;
15528;SDS011;7866;52.280;9.500;2023-07-30T08:51:12;4.38;;;3.40;;
15528;SDS011;7866;52.280;9.500;2023-07-30T08:56:15;5.10;;;3.30;;
15528;SDS011;7866;52.280;9.500;2023-07-30T09:01:18;5.00;;;3.28;;
15528;SDS011;7866;52.280;9.500;2023-07-30T09:06:21;7.13;;;3.45;;
15528;SDS011;7866;52.280;9.500;2023-07-30T09:11:24;8.10;;;3.42;;
15528;SDS011;7866;52.280;9.500;2023-07-30T09:16:28;4.85;;;3.17;;
15528;SDS011;7866;52.280;9.500;2023-07-30T09:21:30;4.72;;;2.85;;
15528;SDS011;7866;52.280;9.500;2023-07-30T09:26:41;4.22;;;2.97;;
15528;SDS011;7866;52.280;9.500;2023-07-30T09:31:49;4.20;;;2.88;;
15528;SDS011;7866;52.280;9.500;2023-07-30T09:36:54;8.02;;;3.30;;
15528;SDS011;7866;52.280;9.500;2023-07-30T09:41:59;6.00;;;3.40;;
15528;SDS011;7866;52.280;9.500;2023-07-30T09:47:03;4.70;;;3.20;;
15528;SDS011;7866;52.280;9.500;2023-07-30T09:52:06;6.10;;;3.30;;
15528;SDS011;7866;52.280;9.500;2023-07-30T09:57:07;5.70;;;3.67;;
15528;SDS011;7866;52.280;9.500;2023-07-30T10:02:10;6.25;;;3.85;;
15528;SDS011;7866;52.280;9.500;2023-07-30T10:07:14;8.88;;;5.55;;
15528;SDS011;7866;52.280;9.500;2023-07-30T10:12:20;6.70;;;4.50;;
15528;SDS011;7866;52.280;9.500;2023-07-30T10:17:25;5.53;;;4.00;;
15528;SDS011;7866;52.280;9.500;2023-07-30T10:22:28;8.32;;;4.53;;
15528;SDS011;7866;52.280;9.500;2023-07-30T10:27:35;7.05;;;4.63;;
15528;SDS011;7866;52.280;9.500;2023-07-30T10:32:40;8.85;;;4.72;;
15528;SDS011;7866;52.280;9.500;2023-07-30T10:37:45;8.73;;;5.13;;
15528;SDS011;7866;52.280;9.500;2023-07-30T10:42:47;8.45;;;4.80;;
15528;SDS011;7866;52.280;9.500;2023-07-30T10:47:50;8.27;;;5.32;;
15528;SDS011;7866;52.280;9.500;2023-07-30T10:52:52;9.25;;;6.60;;
15528;SDS011;7866;52.280;9.500;2023-07-30T10:57:54;10.50;;;7.57;;
15528;SDS011;7866;52.280;9.500;2023-07-30T11:02:57;9.55;;;7.53;;
15528;SDS011;7866;52.280;9.500;2023-07-30T11:07:59;10.95;;;7.95;;
15528;SDS011;7866;52.280;9.500;2023-07-30T11:13:00;10.25;;;8.00;;
15528;SDS011;7866;52.280;9.500;2023-07-30T11:18:03;11.93;;;8.57;;
15528;SDS011;7866;52.280;9.500;2023-07-30T11:23:18;9.63;;;8.13;;
15528;SDS011;7866;52.280;9.500;2023-07-30T11:28:28;9.63;;;7.88;;
15528;SDS011;7866;52.280;9.500;2023-07-30T11:33:31;10.10;;;7.55;;
15528;SDS011;7866;52.280;9.500;2023-07-30T11:38:34;9.98;;;7.90;;
15528;SDS011;7866;52.280;9.500;2023-07-30T11:43:37;10.65;;;7.95;;
15528;SDS011;7866;52.280;9.500;2023-07-30T11:48:43;8.30;;;6.65;;
15528;SDS011;7866;52.280;9.500;2023-07-30T11:53:46;9.63;;;7.20;;
15528;SDS011;7866;52.280;9.500;2023-07-30T11:58:50;8.93;;;6.90;;
15528;SDS011;7866;52.280;9.500;2023-07-30T12:03:58;7.88;;;6.28;;
15528;SDS011;7866;52.280;9.500;2023-07-30T12:09:01;6.93;;;6.18;;
15528;SDS011;7866;52.280;9.500;2023-07-30T12:14:02;6.38;;;5.53;;
15528;SDS011;7866;52.280;9.500;2023-07-30T12:19:05;5.53;;;4.32;;
15528;SDS011;7866;52.280;9.500;2023-07-30T12:24:07;5.78;;;4.75;;
15528;SDS011;7866;52.280;9.500;2023-07-30T12:29:08;8.50;;;4.90;;
15528;SDS011;7866;52.280;9.500;2023-07-30T12:34:11;7.05;;;4.43;;
15528;SDS011;7866;52.280;9.500;2023-07-30T12:39:13;5.95;;;3.50;;
15528;SDS011;7866;52.280;9.500;2023-07-30T12:44:15;7.57;;;3.80;;
15528;SDS011;7866;52.280;9.500;2023-07-30T12:49:18;6.22;;;4.10;;
15528;SDS011;7866;52.280;9.500;2023-07-30T12:54:19;5.55;;;3.55;;
15528;SDS011;7866;52.280;9.500;2023-07-30T12:59:21;5.57;;;3.80;;
15528;SDS011;7866;52.280;9.500;2023-07-30T13:04:24;4.28;;;3.80;;
15528;SDS011;7866;52.280;9.500;2023-07-30T13:09:27;4.90;;;3.30;;
15528;SDS011;7866;52.280;9.500;2023-07-30T13:14:29;6.72;;;3.55;;
15528;SDS011;7866;52.280;9.500;2023-07-30T13:19:32;5.30;;;3.28;;
15528;SDS011;7866;52.280;9.500;2023-07-30T13:24:34;5.20;;;3.33;;
15528;SDS011;7866;52.280;9.500;2023-07-30T13:29:36;4.85;;;3.17;;
15528;SDS011;7866;52.280;9.500;2023-07-30T13:34:39;5.25;;;3.22;;
15528;SDS011;7866;52.280;9.500;2023-07-30T13:39:41;4.63;;;2.50;;
15528;SDS011;7866;52.280;9.500;2023-07-30T13:44:42;3.92;;;2.53;;
15528;SDS011;7866;52.280;9.500;2023-07-30T13:49:45;5.30;;;2.10;;
15528;SDS011;7866;52.280;9.500;2023-07-30T13:54:47;3.15;;;2.20;;
15528;SDS011;7866;52.280;9.500;2023-07-30T13:59:49;2.80;;;1.90;;
15528;SDS011;7866;52.280;9.500;2023-07-30T14:04:52;2.53;;;1.73;;
15528;SDS011;7866;52.280;9.500;2023-07-30T14:09:54;2.55;;;1.52;;
15528;SDS011;7866;52.280;9.500;2023-07-30T14:14:56;4.10;;;1.60;;
15528;SDS011;7866;52.280;9.500;2023-07-30T14:19:59;2.78;;;1.52;;
15528;SDS011;7866;52.280;9.500;2023-07-30T14:25:00;4.78;;;1.63;;
15528;SDS011;7866;52.280;9.500;2023-07-30T14:30:02;7.40;;;1.83;;
15528;SDS011;7866;52.280;9.500;2023-07-30T14:35:06;6.95;;;1.45;;
15528;SDS011;7866;52.280;9.500;2023-07-30T14:40:09;3.80;;;1.83;;
15528;SDS011;7866;52.280;9.500;2023-07-30T14:45:11;3.72;;;1.65;;
15528;SDS011;7866;52.280;9.500;2023-07-30T14:50:14;4.93;;;1.65;;
15528;SDS011;7866;52.280;9.500;2023-07-30T14:55:15;3.65;;;1.15;;
15528;SDS011;7866;52.280;9.500;2023-07-30T15:00:17;2.03;;;1.25;;
15528;SDS011;7866;52.280;9.500;2023-07-30T15:05:20;3.15;;;1.33;;
15528;SDS011;7866;52.280;9.500;2023-07-30T15:10:21;3.17;;;1.20;;
15528;SDS011;7866;52.280;9.500;2023-07-30T15:15:23;1.70;;;0.93;;
15528;SDS011;7866;52.280;9.500;2023-07-30T15:20:26;2.47;;;1.30;;
15528;SDS011;7866;52.280;9.500;2023-07-30T15:25:28;3.28;;;1.20;;
15528;SDS011;7866;52.280;9.500;2023-07-30T15:30:29;4.13;;;1.20;;
15528;SDS011;7866;52.280;9.500;2023-07-30T15:35:32;2.63;;;1.20;;
15528;SDS011;7866;52.280;9.500;2023-07-30T15:40:34;3.45;;;1.48;;
15528;SDS011;7866;52.280;9.500;2023-07-30T15:45:36;2.83;;;1.30;;
15528;SDS011;7866;52.280;9.500;2023-07-30T15:50:44;4.07;;;1.23;;
15528;SDS011;7866;52.280;9.500;2023-07-30T15:55:45;2.88;;;1.15;;
15528;SDS011;7866;52.280;9.500;2023-07-30T16:00:47;1.80;;;1.23;;
15528;SDS011;7866;52.280;9.500;2023-07-30T16:05:50;3.25;;;1.33;;
15528;SDS011;7866;52.280;9.500;2023-07-30T16:10:59;3.10;;;1.50;;
15528;SDS011;7866;52.280;9.500;2023-07-30T16:16:08;2.65;;;1.35;;
15528;SDS011;7866;52.280;9.500;2023-07-30T16:21:11;3.35;;;1.30;;
15528;SDS011;7866;52.280;9.500;2023-07-30T16:26:14;4.20;;;1.35;;
15528;SDS011;7866;52.280;9.500;2023-07-30T16:31:16;2.03;;;1.40;;
15528;SDS011;7866;52.280;9.500;2023-07-30T16:36:19;2.55;;;1.10;;
15528;SDS011;7866;52.280;9.500;2023-07-30T16:41:20;3.00;;;1.33;;
15528;SDS011;7866;52.280;9.500;2023-07-30T16:46:22;4.95;;;1.50;;
15528;SDS011;7866;52.280;9.500;2023-07-30T16:51:25;2.15;;;0.80;;
15528;SDS011;7866;52.280;9.500;2023-07-30T16:56:26;4.72;;;1.30;;
15528;SDS011;7866;52.280;9.500;2023-07-30T17:01:28;2.13;;;1.10;;
15528;SDS011;7866;52.280;9.500;2023-07-30T17:06:31;3.55;;;1.38;;
15528;SDS011;7866;52.280;9.500;2023-07-30T17:11:35;4.20;;;1.40;;
15528;SDS011;7866;52.280;9.500;2023-07-30T17:16:36;2.80;;;1.38;;
15528;SDS011;7866;52.280;9.500;2023-07-30T17:21:39;4.40;;;1.40;;
15528;SDS011;7866;52.280;9.500;2023-07-30T17:26:41;5.68;;;1.30;;
15528;SDS011;7866;52.280;9.500;2023-07-30T17:31:43;2.55;;;1.35;;
15528;SDS011;7866;52.280;9.500;2023-07-30T17:36:45;3.38;;;1.20;;
15528;SDS011;7866;52.280;9.500;2023-07-30T17:41:47;2.20;;;1.20;;
15528;SDS011;7866;52.280;9.500;2023-07-30T17:46:49;3.00;;;1.27;;
15528;SDS011;7866;52.280;9.500;2023-07-30T17:51:52;2.15;;;1.10;;
15528;SDS011;7866;52.280;9.500;2023-07-30T17:56:53;2.35;;;1.20;;
15528;SDS011;7866;52.280;9.500;2023-07-30T18:01:55;5.45;;;1.35;;
15528;SDS011;7866;52.280;9.500;2023-07-30T18:06:58;5.05;;;1.27;;
15528;SDS011;7866;52.280;9.500;2023-07-30T18:12:00;3.72;;;1.27;;
15528;SDS011;7866;52.280;9.500;2023-07-30T18:17:02;4.43;;;1.20;;
15528;SDS011;7866;52.280;9.500;2023-07-30T18:22:05;4.57;;;1.60;;
15528;SDS011;7866;52.280;9.500;2023-07-30T18:27:07;2.47;;;1.10;;
15528;SDS011;7866;52.280;9.500;2023-07-30T18:32:08;1.70;;;1.02;;
15528;SDS011;7866;52.280;9.500;2023-07-30T18:37:11;1.75;;;1.00;;
15528;SDS011;7866;52.280;9.500;2023-07-30T18:42:13;2.75;;;1.40;;
15528;SDS011;7866;52.280;9.500;2023-07-30T18:47:15;2.53;;;1.10;;
15528;SDS011;7866;52.280;9.500;2023-07-30T18:52:18;4.22;;;1.58;;
15528;SDS011;7866;52.280;9.500;2023-07-30T18:57:19;2.40;;;1.52;;
15528;SDS011;7866;52.280;9.500;2023-07-30T19:02:21;4.47;;;1.27;;
15528;SDS011;7866;52.280;9.500;2023-07-30T19:07:24;3.97;;;1.50;;
15528;SDS011;7866;52.280;9.500;2023-07-30T19:12:26;2.35;;;1.30;;
15528;SDS011;7866;52.280;9.500;2023-07-30T19:17:27;3.38;;;1.30;;
15528;SDS011;7866;52.280;9.500;2023-07-30T19:22:31;3.35;;;1.48;;
15528;SDS011;7866;52.280;9.500;2023-07-30T19:27:32;3.55;;;1.30;;
15528;SDS011;7866;52.280;9.500;2023-07-30T19:32:35;3.40;;;1.48;;
15528;SDS011;7866;52.280;9.500;2023-07-30T19:37:38;2.22;;;1.48;;
15528;SDS011;7866;52.280;9.500;2023-07-30T19:42:39;3.95;;;1.10;;
15528;SDS011;7866;52.280;9.500;2023-07-30T19:47:41;4.18;;;1.25;;
15528;SDS011;7866;52.280;9.500;2023-07-30T19:52:44;4.70;;;1.50;;
15528;SDS011;7866;52.280;9.500;2023-07-30T19:57:46;2.17;;;1.50;;
15528;SDS011;7866;52.280;9.500;2023-07-30T20:02:47;3.40;;;1.45;;
15528;SDS011;7866;52.280;9.500;2023-07-30T20:07:50;3.20;;;1.50;;
15528;SDS011;7866;52.280;9.500;2023-07-30T20:12:52;4.15;;;1.73;;
15528;SDS011;7866;52.280;9.500;2023-07-30T20:17:54;3.70;;;1.77;;
15528;SDS011;7866;52.280;9.500;2023-07-30T20:22:57;3.95;;;1.77;;
15528;SDS011;7866;52.280;9.500;2023-07-30T20:27:58;4.72;;;1.42;;
15528;SDS011;7866;52.280;9.500;2023-07-30T20:33:00;4.18;;;1.27;;
15528;SDS011;7866;52.280;9.500;2023-07-30T20:38:04;4.53;;;1.45;;
15528;SDS011;7866;52.280;9.500;2023-07-30T20:43:05;5.28;;;1.30;;
15528;SDS011;7866;52.280;9.500;2023-07-30T20:48:07;4.72;;;1.15;;
15528;SDS011;7866;52.280;9.500;2023-07-30T20:53:10;2.83;;;1.25;;
15528;SDS011;7866;52.280;9.500;2023-07-30T20:58:14;3.47;;;1.25;;
15528;SDS011;7866;52.280;9.500;2023-07-30T21:03:16;3.83;;;1.40;;
15528;SDS011;7866;52.280;9.500;2023-07-30T21:08:19;3.20;;;1.33;;
15528;SDS011;7866;52.280;9.500;2023-07-30T21:13:21;3.25;;;1.20;;
15528;SDS011;7866;52.280;9.500;2023-07-30T21:18:23;4.63;;;1.70;;
15528;SDS011;7866;52.280;9.500;2023-07-30T21:23:26;3.08;;;1.20;;
15528;SDS011;7866;52.280;9.500;2023-07-30T21:28:27;4.72;;;1.33;;
15528;SDS011;7866;52.280;9.500;2023-07-30T21:33:30;3.45;;;1.42;;
15528;SDS011;7866;52.280;9.500;2023-07-30T21:38:33;4.30;;;1.70;;
15528;SDS011;7866;52.280;9.500;2023-07-30T21:43:35;2.28;;;1.02;;
15528;SDS011;7866;52.280;9.500;2023-07-30T21:48:37;2.58;;;1.35;;
15528;SDS011;7866;52.280;9.500;2023-07-30T21:53:40;2.83;;;1.40;;
15528;SDS011;7866;52.280;9.500;2023-07-30T21:58:42;4.18;;;1.58;;
15528;SDS011;7866;52.280;9.500;2023-07-30T22:03:44;2.88;;;1.60;;
15528;SDS011;7866;52.280;9.500;2023-07-30T22:08:48;4.28;;;1.98;;
15528;SDS011;7866;52.280;9.500;2023-07-30T22:13:49;4.28;;;1.92;;
15528;SDS011;7866;52.280;9.500;2023-07-30T22:18:51;2.10;;;1.30;;
15528;SDS011;7866;52.280;9.500;2023-07-30T22:23:54;1.90;;;1.25;;
15528;SDS011;7866;52.280;9.500;2023-07-30T22:28:55;2.22;;;1.17;;
15528;SDS011;7866;52.280;9.500;2023-07-30T22:33:57;1.60;;;1.23;;
15528;SDS011;7866;52.280;9.500;2023-07-30T22:39:00;2.45;;;1.40;;
15528;SDS011;7866;52.280;9.500;2023-07-30T22:44:02;1.33;;;1.20;;
15528;SDS011;7866;52.280;9.500;2023-07-30T22:49:03;1.50;;;1.40;;
15528;SDS011;7866;52.280;9.500;2023-07-30T22:54:06;1.95;;;1.10;;
15528;SDS011;7866;52.280;9.500;2023-07-30T22:59:08;1.77;;;1.35;;
15528;SDS011;7866;52.280;9.500;2023-07-30T23:04:10;1.73;;;1.48;;
15528;SDS011;7866;52.280;9.500;2023-07-30T23:09:12;1.63;;;1.40;;
15528;SDS011;7866;52.280;9.500;2023-07-30T23:14:14;3.40;;;1.70;;
15528;SDS011;7866;52.280;9.500;2023-07-30T23:19:16;1.55;;;1.20;;
15528;SDS011;7866;52.280;9.500;2023-07-30T23:24:19;2.25;;;1.42;;
15528;SDS011;7866;52.280;9.500;2023-07-30T23:29:21;1.95;;;1.40;;
15528;SDS011;7866;52.280;9.500;2023-07-30T23:34:23;2.20;;;1.42;;
15528;SDS011;7866;52.280;9.500;2023-07-30T23:39:26;3.58;;;1.58;;
15528;SDS011;7866;52.280;9.500;2023-07-30T23:44:27;1.30;;;1.20;;
15528;SDS011;7866;52.280;9.500;2023-07-30T23:49:29;2.08;;;1.20;;
15528;SDS011;7866;52.280;9.500;2023-07-30T23:54:32;1.30;;;1.20;;
15528;SDS011;7866;52.280;9.500;2023-07-30T23:59:33;1.63;;;1.35;;
